sensor_id;sensor_type;location;lat;lon;timestamp;P1;durP1;ratioP1;P2;durP2;ratioP2
22172;SDS011;11252;50.596;17.648;2023-05-10T00:00:55;6.50;;;5.43;;
22172;SDS011;11252;50.596;17.648;2023-05-10T00:03:23;13.87;;;5.50;;
22172;SDS011;11252;50.596;17.648;2023-05-10T00:05:51;7.30;;;5.00;;
22172;SDS011;11252;50.596;17.648;2023-05-10T00:08:19;7.20;;;5.03;;
22172;SDS011;11252;50.596;17.648;2023-05-10T00:10:46;7.97;;;4.90;;
22172;SDS011;11252;50.596;17.648;2023-05-10T00:13:14;8.37;;;4.93;;
22172;SDS011;11252;50.596;17.648;2023-05-10T00:15:41;9.10;;;5.67;;
22172;SDS011;11252;50.596;17.648;2023-05-10T00:18:08;10.20;;;5.40;;
22172;SDS011;11252;50.596;17.648;2023-05-10T00:20:36;6.77;;;4.80;;
22172;SDS011;11252;50.596;17.648;2023-05-10T00:23:03;11.97;;;5.43;;
22172;SDS011;11252;50.596;17.648;2023-05-10T00:25:31;7.47;;;5.70;;
22172;SDS011;11252;50.596;17.648;2023-05-10T00:27:58;8.87;;;6.03;;
22172;SDS011;11252;50.596;17.648;2023-05-10T00:30:27;8.27;;;5.13;;
22172;SDS011;11252;50.596;17.648;2023-05-10T00:32:55;8.63;;;6.17;;
22172;SDS011;11252;50.596;17.648;2023-05-10T00:35:22;8.93;;;5.83;;
22172;SDS011;11252;50.596;17.648;2023-05-10T00:37:50;9.80;;;5.57;;
22172;SDS011;11252;50.596;17.648;2023-05-10T00:40:17;9.50;;;6.03;;
22172;SDS011;11252;50.596;17.648;2023-05-10T00:42:46;8.23;;;5.10;;
22172;SDS011;11252;50.596;17.648;2023-05-10T00:45:15;8.13;;;5.20;;
22172;SDS011;11252;50.596;17.648;2023-05-10T00:47:45;8.03;;;5.43;;
22172;SDS011;11252;50.596;17.648;2023-05-10T00:50:13;7.43;;;5.30;;
22172;SDS011;11252;50.596;17.648;2023-05-10T00:52:42;8.10;;;6.07;;
22172;SDS011;11252;50.596;17.648;2023-05-10T00:55:10;11.50;;;5.87;;
22172;SDS011;11252;50.596;17.648;2023-05-10T00:57:38;7.97;;;5.90;;
22172;SDS011;11252;50.596;17.648;2023-05-10T01:00:06;6.93;;;5.83;;
22172;SDS011;11252;50.596;17.648;2023-05-10T01:02:34;10.33;;;5.80;;
22172;SDS011;11252;50.596;17.648;2023-05-10T01:05:02;8.27;;;5.57;;
22172;SDS011;11252;50.596;17.648;2023-05-10T01:07:30;9.37;;;5.90;;
22172;SDS011;11252;50.596;17.648;2023-05-10T01:09:57;8.13;;;5.90;;
22172;SDS011;11252;50.596;17.648;2023-05-10T01:12:25;9.73;;;5.60;;
22172;SDS011;11252;50.596;17.648;2023-05-10T01:14:54;8.80;;;5.30;;
22172;SDS011;11252;50.596;17.648;2023-05-10T01:17:22;8.03;;;5.47;;
22172;SDS011;11252;50.596;17.648;2023-05-10T01:19:50;10.40;;;6.17;;
22172;SDS011;11252;50.596;17.648;2023-05-10T01:22:30;8.00;;;6.17;;
22172;SDS011;11252;50.596;17.648;2023-05-10T01:25:16;10.67;;;5.83;;
22172;SDS011;11252;50.596;17.648;2023-05-10T01:31:21;12.93;;;6.00;;
22172;SDS011;11252;50.596;17.648;2023-05-10T01:39:39;7.33;;;5.30;;
22172;SDS011;11252;50.596;17.648;2023-05-10T01:42:23;7.67;;;5.50;;
22172;SDS011;11252;50.596;17.648;2023-05-10T01:44:59;8.33;;;5.97;;
22172;SDS011;11252;50.596;17.648;2023-05-10T01:47:38;11.60;;;5.73;;
22172;SDS011;11252;50.596;17.648;2023-05-10T01:50:10;9.90;;;6.03;;
22172;SDS011;11252;50.596;17.648;2023-05-10T01:52:51;10.90;;;6.03;;
22172;SDS011;11252;50.596;17.648;2023-05-10T01:55:22;6.90;;;5.57;;
22172;SDS011;11252;50.596;17.648;2023-05-10T01:57:58;10.13;;;6.13;;
22172;SDS011;11252;50.596;17.648;2023-05-10T02:00:36;7.90;;;5.73;;
22172;SDS011;11252;50.596;17.648;2023-05-10T02:03:09;13.13;;;6.30;;
22172;SDS011;11252;50.596;17.648;2023-05-10T02:05:38;11.10;;;6.03;;
22172;SDS011;11252;50.596;17.648;2023-05-10T02:08:08;10.17;;;6.03;;
22172;SDS011;11252;50.596;17.648;2023-05-10T02:10:36;8.27;;;5.93;;
22172;SDS011;11252;50.596;17.648;2023-05-10T02:13:06;7.37;;;5.50;;
22172;SDS011;11252;50.596;17.648;2023-05-10T02:15:34;10.00;;;6.40;;
22172;SDS011;11252;50.596;17.648;2023-05-10T02:18:04;7.03;;;6.10;;
22172;SDS011;11252;50.596;17.648;2023-05-10T02:20:32;9.07;;;6.47;;
22172;SDS011;11252;50.596;17.648;2023-05-10T02:23:02;11.47;;;6.53;;
22172;SDS011;11252;50.596;17.648;2023-05-10T02:25:31;9.23;;;5.90;;
22172;SDS011;11252;50.596;17.648;2023-05-10T02:28:00;11.30;;;6.63;;
22172;SDS011;11252;50.596;17.648;2023-05-10T02:30:31;11.93;;;6.50;;
22172;SDS011;11252;50.596;17.648;2023-05-10T02:33:00;11.67;;;6.70;;
22172;SDS011;11252;50.596;17.648;2023-05-10T02:35:29;11.33;;;6.87;;
22172;SDS011;11252;50.596;17.648;2023-05-10T02:37:59;9.93;;;6.97;;
22172;SDS011;11252;50.596;17.648;2023-05-10T02:40:27;9.27;;;6.10;;
22172;SDS011;11252;50.596;17.648;2023-05-10T02:42:56;8.73;;;6.33;;
22172;SDS011;11252;50.596;17.648;2023-05-10T02:45:27;7.83;;;6.03;;
22172;SDS011;11252;50.596;17.648;2023-05-10T02:47:56;10.63;;;6.97;;
22172;SDS011;11252;50.596;17.648;2023-05-10T02:50:26;10.10;;;6.87;;
22172;SDS011;11252;50.596;17.648;2023-05-10T02:53:06;10.03;;;6.60;;
22172;SDS011;11252;50.596;17.648;2023-05-10T02:55:38;9.17;;;6.57;;
22172;SDS011;11252;50.596;17.648;2023-05-10T02:58:08;11.43;;;6.60;;
22172;SDS011;11252;50.596;17.648;2023-05-10T03:00:36;8.33;;;6.20;;
22172;SDS011;11252;50.596;17.648;2023-05-10T03:03:04;9.47;;;6.57;;
22172;SDS011;11252;50.596;17.648;2023-05-10T03:05:31;9.27;;;6.30;;
22172;SDS011;11252;50.596;17.648;2023-05-10T03:07:59;9.90;;;6.50;;
22172;SDS011;11252;50.596;17.648;2023-05-10T03:10:30;8.53;;;6.43;;
22172;SDS011;11252;50.596;17.648;2023-05-10T03:13:16;9.47;;;6.60;;
22172;SDS011;11252;50.596;17.648;2023-05-10T03:16:16;8.00;;;6.10;;
22172;SDS011;11252;50.596;17.648;2023-05-10T03:21:24;12.93;;;6.90;;
22172;SDS011;11252;50.596;17.648;2023-05-10T03:24:02;10.37;;;6.93;;
22172;SDS011;11252;50.596;17.648;2023-05-10T03:26:34;9.57;;;6.63;;
22172;SDS011;11252;50.596;17.648;2023-05-10T03:29:04;10.90;;;6.80;;
22172;SDS011;11252;50.596;17.648;2023-05-10T03:31:33;7.97;;;5.97;;
22172;SDS011;11252;50.596;17.648;2023-05-10T03:34:01;7.57;;;6.23;;
22172;SDS011;11252;50.596;17.648;2023-05-10T03:36:29;7.50;;;5.97;;
22172;SDS011;11252;50.596;17.648;2023-05-10T03:38:57;11.43;;;6.50;;
22172;SDS011;11252;50.596;17.648;2023-05-10T03:41:24;8.30;;;6.63;;
22172;SDS011;11252;50.596;17.648;2023-05-10T03:43:52;9.53;;;6.53;;
22172;SDS011;11252;50.596;17.648;2023-05-10T03:46:20;8.97;;;6.87;;
22172;SDS011;11252;50.596;17.648;2023-05-10T03:48:47;8.83;;;6.73;;
22172;SDS011;11252;50.596;17.648;2023-05-10T03:51:15;11.33;;;6.87;;
22172;SDS011;11252;50.596;17.648;2023-05-10T03:53:45;9.20;;;6.67;;
22172;SDS011;11252;50.596;17.648;2023-05-10T03:56:13;8.50;;;6.37;;
22172;SDS011;11252;50.596;17.648;2023-05-10T03:58:41;10.90;;;7.00;;
22172;SDS011;11252;50.596;17.648;2023-05-10T04:01:08;8.37;;;6.73;;
22172;SDS011;11252;50.596;17.648;2023-05-10T04:03:39;8.13;;;6.40;;
22172;SDS011;11252;50.596;17.648;2023-05-10T04:06:07;10.07;;;6.97;;
22172;SDS011;11252;50.596;17.648;2023-05-10T04:08:38;8.77;;;6.50;;
22172;SDS011;11252;50.596;17.648;2023-05-10T04:11:10;10.60;;;6.97;;
22172;SDS011;11252;50.596;17.648;2023-05-10T04:13:39;10.03;;;7.03;;
22172;SDS011;11252;50.596;17.648;2023-05-10T04:16:06;10.07;;;6.10;;
22172;SDS011;11252;50.596;17.648;2023-05-10T04:18:34;9.43;;;7.00;;
22172;SDS011;11252;50.596;17.648;2023-05-10T04:21:02;8.97;;;6.37;;
22172;SDS011;11252;50.596;17.648;2023-05-10T04:23:32;10.23;;;6.70;;
22172;SDS011;11252;50.596;17.648;2023-05-10T04:26:00;11.70;;;6.23;;
22172;SDS011;11252;50.596;17.648;2023-05-10T04:28:34;15.77;;;10.13;;
22172;SDS011;11252;50.596;17.648;2023-05-10T04:31:06;7.87;;;6.10;;
22172;SDS011;11252;50.596;17.648;2023-05-10T04:33:39;14.43;;;9.40;;
22172;SDS011;11252;50.596;17.648;2023-05-10T04:36:08;31.27;;;19.07;;
22172;SDS011;11252;50.596;17.648;2023-05-10T04:38:35;26.77;;;16.03;;
22172;SDS011;11252;50.596;17.648;2023-05-10T04:41:04;24.43;;;15.07;;
22172;SDS011;11252;50.596;17.648;2023-05-10T04:43:33;9.27;;;5.70;;
22172;SDS011;11252;50.596;17.648;2023-05-10T04:46:02;13.50;;;6.93;;
22172;SDS011;11252;50.596;17.648;2023-05-10T04:48:33;9.57;;;6.13;;
22172;SDS011;11252;50.596;17.648;2023-05-10T04:51:00;14.33;;;9.57;;
22172;SDS011;11252;50.596;17.648;2023-05-10T04:53:30;24.83;;;19.40;;
22172;SDS011;11252;50.596;17.648;2023-05-10T04:56:01;11.60;;;6.90;;
22172;SDS011;11252;50.596;17.648;2023-05-10T04:58:28;46.03;;;28.43;;
22172;SDS011;11252;50.596;17.648;2023-05-10T05:00:56;14.80;;;7.80;;
22172;SDS011;11252;50.596;17.648;2023-05-10T05:03:24;10.47;;;7.10;;
22172;SDS011;11252;50.596;17.648;2023-05-10T05:05:51;12.53;;;8.13;;
22172;SDS011;11252;50.596;17.648;2023-05-10T05:08:19;6.40;;;4.80;;
22172;SDS011;11252;50.596;17.648;2023-05-10T05:10:47;14.53;;;8.30;;
22172;SDS011;11252;50.596;17.648;2023-05-10T05:13:16;11.93;;;7.47;;
22172;SDS011;11252;50.596;17.648;2023-05-10T05:15:44;10.53;;;6.57;;
22172;SDS011;11252;50.596;17.648;2023-05-10T05:18:11;9.47;;;6.00;;
22172;SDS011;11252;50.596;17.648;2023-05-10T05:20:38;10.17;;;6.90;;
22172;SDS011;11252;50.596;17.648;2023-05-10T05:23:06;9.47;;;6.57;;
22172;SDS011;11252;50.596;17.648;2023-05-10T05:25:33;10.13;;;5.73;;
22172;SDS011;11252;50.596;17.648;2023-05-10T05:28:01;7.87;;;4.97;;
22172;SDS011;11252;50.596;17.648;2023-05-10T05:30:28;7.80;;;5.03;;
22172;SDS011;11252;50.596;17.648;2023-05-10T05:32:55;10.60;;;4.83;;
22172;SDS011;11252;50.596;17.648;2023-05-10T05:35:23;8.03;;;5.67;;
22172;SDS011;11252;50.596;17.648;2023-05-10T05:37:50;10.67;;;5.10;;
22172;SDS011;11252;50.596;17.648;2023-05-10T05:40:18;9.37;;;5.10;;
22172;SDS011;11252;50.596;17.648;2023-05-10T05:42:47;7.27;;;5.50;;
22172;SDS011;11252;50.596;17.648;2023-05-10T05:45:14;6.47;;;4.67;;
22172;SDS011;11252;50.596;17.648;2023-05-10T05:47:42;8.17;;;5.00;;
22172;SDS011;11252;50.596;17.648;2023-05-10T05:50:10;10.40;;;6.83;;
22172;SDS011;11252;50.596;17.648;2023-05-10T05:52:38;6.57;;;4.87;;
22172;SDS011;11252;50.596;17.648;2023-05-10T05:55:06;9.00;;;6.03;;
22172;SDS011;11252;50.596;17.648;2023-05-10T05:57:34;9.93;;;6.00;;
22172;SDS011;11252;50.596;17.648;2023-05-10T06:00:01;10.13;;;6.60;;
22172;SDS011;11252;50.596;17.648;2023-05-10T06:02:30;11.87;;;5.73;;
22172;SDS011;11252;50.596;17.648;2023-05-10T06:04:58;9.37;;;7.37;;
22172;SDS011;11252;50.596;17.648;2023-05-10T06:07:25;8.17;;;5.27;;
22172;SDS011;11252;50.596;17.648;2023-05-10T06:09:53;6.83;;;5.40;;
22172;SDS011;11252;50.596;17.648;2023-05-10T06:12:20;7.00;;;5.33;;
22172;SDS011;11252;50.596;17.648;2023-05-10T06:14:47;9.17;;;6.47;;
22172;SDS011;11252;50.596;17.648;2023-05-10T06:17:14;9.23;;;6.00;;
22172;SDS011;11252;50.596;17.648;2023-05-10T06:19:42;7.07;;;5.00;;
22172;SDS011;11252;50.596;17.648;2023-05-10T06:22:09;8.97;;;5.57;;
22172;SDS011;11252;50.596;17.648;2023-05-10T06:24:37;9.30;;;4.87;;
22172;SDS011;11252;50.596;17.648;2023-05-10T06:27:04;6.27;;;5.60;;
22172;SDS011;11252;50.596;17.648;2023-05-10T06:29:33;6.00;;;4.70;;
22172;SDS011;11252;50.596;17.648;2023-05-10T06:32:00;10.03;;;6.10;;
22172;SDS011;11252;50.596;17.648;2023-05-10T06:34:27;7.70;;;4.80;;
22172;SDS011;11252;50.596;17.648;2023-05-10T06:36:55;8.27;;;5.70;;
22172;SDS011;11252;50.596;17.648;2023-05-10T06:39:23;6.33;;;4.83;;
22172;SDS011;11252;50.596;17.648;2023-05-10T06:41:50;7.43;;;4.97;;
22172;SDS011;11252;50.596;17.648;2023-05-10T06:44:17;8.93;;;4.97;;
22172;SDS011;11252;50.596;17.648;2023-05-10T06:46:45;7.63;;;4.77;;
22172;SDS011;11252;50.596;17.648;2023-05-10T06:49:12;10.40;;;4.37;;
22172;SDS011;11252;50.596;17.648;2023-05-10T06:51:40;11.63;;;4.30;;
22172;SDS011;11252;50.596;17.648;2023-05-10T06:54:07;5.83;;;4.30;;
22172;SDS011;11252;50.596;17.648;2023-05-10T06:56:34;7.07;;;5.57;;
22172;SDS011;11252;50.596;17.648;2023-05-10T06:59:02;11.30;;;8.03;;
22172;SDS011;11252;50.596;17.648;2023-05-10T07:01:29;5.10;;;3.80;;
22172;SDS011;11252;50.596;17.648;2023-05-10T07:03:57;6.73;;;5.50;;
22172;SDS011;11252;50.596;17.648;2023-05-10T07:06:24;7.00;;;3.80;;
22172;SDS011;11252;50.596;17.648;2023-05-10T07:08:59;6.00;;;4.50;;
22172;SDS011;11252;50.596;17.648;2023-05-10T07:11:27;9.50;;;4.63;;
22172;SDS011;11252;50.596;17.648;2023-05-10T07:13:54;6.03;;;4.27;;
22172;SDS011;11252;50.596;17.648;2023-05-10T07:16:22;9.10;;;7.10;;
22172;SDS011;11252;50.596;17.648;2023-05-10T07:18:49;9.93;;;8.93;;
22172;SDS011;11252;50.596;17.648;2023-05-10T07:21:17;10.60;;;8.30;;
22172;SDS011;11252;50.596;17.648;2023-05-10T07:23:44;6.50;;;4.43;;
22172;SDS011;11252;50.596;17.648;2023-05-10T07:26:12;8.07;;;6.57;;
22172;SDS011;11252;50.596;17.648;2023-05-10T07:28:39;6.90;;;4.43;;
22172;SDS011;11252;50.596;17.648;2023-05-10T07:31:09;5.60;;;3.67;;
22172;SDS011;11252;50.596;17.648;2023-05-10T07:33:37;8.47;;;4.13;;
22172;SDS011;11252;50.596;17.648;2023-05-10T07:36:04;4.53;;;3.83;;
22172;SDS011;11252;50.596;17.648;2023-05-10T07:38:31;4.67;;;4.20;;
22172;SDS011;11252;50.596;17.648;2023-05-10T07:40:59;5.43;;;3.60;;
22172;SDS011;11252;50.596;17.648;2023-05-10T07:43:26;6.87;;;4.17;;
22172;SDS011;11252;50.596;17.648;2023-05-10T07:45:53;9.80;;;3.77;;
22172;SDS011;11252;50.596;17.648;2023-05-10T07:48:21;5.00;;;4.17;;
22172;SDS011;11252;50.596;17.648;2023-05-10T07:50:48;14.30;;;5.17;;
22172;SDS011;11252;50.596;17.648;2023-05-10T07:53:16;6.17;;;3.90;;
22172;SDS011;11252;50.596;17.648;2023-05-10T07:55:49;7.90;;;5.63;;
22172;SDS011;11252;50.596;17.648;2023-05-10T07:58:18;8.50;;;4.83;;
22172;SDS011;11252;50.596;17.648;2023-05-10T08:00:45;6.00;;;4.13;;
22172;SDS011;11252;50.596;17.648;2023-05-10T08:03:13;7.57;;;4.17;;
22172;SDS011;11252;50.596;17.648;2023-05-10T08:05:41;5.60;;;4.07;;
22172;SDS011;11252;50.596;17.648;2023-05-10T08:08:08;4.80;;;3.77;;
22172;SDS011;11252;50.596;17.648;2023-05-10T08:10:36;5.00;;;3.77;;
22172;SDS011;11252;50.596;17.648;2023-05-10T08:13:03;7.53;;;4.67;;
22172;SDS011;11252;50.596;17.648;2023-05-10T08:15:30;6.37;;;4.67;;
22172;SDS011;11252;50.596;17.648;2023-05-10T08:17:57;12.37;;;4.53;;
22172;SDS011;11252;50.596;17.648;2023-05-10T08:20:25;7.87;;;4.27;;
22172;SDS011;11252;50.596;17.648;2023-05-10T08:22:52;9.77;;;3.40;;
22172;SDS011;11252;50.596;17.648;2023-05-10T08:25:20;3.80;;;3.17;;
22172;SDS011;11252;50.596;17.648;2023-05-10T08:27:47;5.03;;;3.50;;
22172;SDS011;11252;50.596;17.648;2023-05-10T08:30:15;7.87;;;3.73;;
22172;SDS011;11252;50.596;17.648;2023-05-10T08:32:42;4.27;;;2.97;;
22172;SDS011;11252;50.596;17.648;2023-05-10T08:35:09;5.43;;;3.40;;
22172;SDS011;11252;50.596;17.648;2023-05-10T08:37:37;7.65;;;3.38;;
22172;SDS011;11252;50.596;17.648;2023-05-10T08:40:04;5.93;;;2.77;;
22172;SDS011;11252;50.596;17.648;2023-05-10T08:42:33;4.93;;;2.83;;
22172;SDS011;11252;50.596;17.648;2023-05-10T08:45:02;4.57;;;3.37;;
22172;SDS011;11252;50.596;17.648;2023-05-10T08:47:31;4.60;;;2.77;;
22172;SDS011;11252;50.596;17.648;2023-05-10T08:49:58;6.20;;;3.00;;
22172;SDS011;11252;50.596;17.648;2023-05-10T08:52:30;7.23;;;3.10;;
22172;SDS011;11252;50.596;17.648;2023-05-10T08:54:59;6.97;;;3.17;;
22172;SDS011;11252;50.596;17.648;2023-05-10T08:57:27;6.30;;;3.50;;
22172;SDS011;11252;50.596;17.648;2023-05-10T08:59:54;11.85;;;4.63;;
22172;SDS011;11252;50.596;17.648;2023-05-10T09:02:22;7.77;;;3.20;;
22172;SDS011;11252;50.596;17.648;2023-05-10T09:04:50;5.20;;;3.90;;
22172;SDS011;11252;50.596;17.648;2023-05-10T09:07:18;9.02;;;3.67;;
22172;SDS011;11252;50.596;17.648;2023-05-10T09:09:46;6.43;;;3.30;;
22172;SDS011;11252;50.596;17.648;2023-05-10T09:12:14;4.73;;;3.33;;
22172;SDS011;11252;50.596;17.648;2023-05-10T09:14:43;7.25;;;2.90;;
22172;SDS011;11252;50.596;17.648;2023-05-10T09:17:12;10.95;;;2.92;;
22172;SDS011;11252;50.596;17.648;2023-05-10T09:19:40;3.83;;;3.17;;
22172;SDS011;11252;50.596;17.648;2023-05-10T09:22:07;7.93;;;3.25;;
22172;SDS011;11252;50.596;17.648;2023-05-10T09:24:34;8.05;;;3.20;;
22172;SDS011;11252;50.596;17.648;2023-05-10T09:27:03;5.38;;;2.75;;
22172;SDS011;11252;50.596;17.648;2023-05-10T09:29:41;9.55;;;2.63;;
22172;SDS011;11252;50.596;17.648;2023-05-10T09:32:09;7.30;;;2.58;;
22172;SDS011;11252;50.596;17.648;2023-05-10T09:34:38;5.53;;;2.80;;
22172;SDS011;11252;50.596;17.648;2023-05-10T09:37:06;6.03;;;2.22;;
22172;SDS011;11252;50.596;17.648;2023-05-10T09:39:35;4.97;;;2.33;;
22172;SDS011;11252;50.596;17.648;2023-05-10T09:42:05;12.90;;;2.70;;
22172;SDS011;11252;50.596;17.648;2023-05-10T09:44:33;8.20;;;3.63;;
22172;SDS011;11252;50.596;17.648;2023-05-10T09:47:02;9.57;;;2.88;;
22172;SDS011;11252;50.596;17.648;2023-05-10T09:49:30;7.53;;;2.88;;
22172;SDS011;11252;50.596;17.648;2023-05-10T09:52:04;5.40;;;2.60;;
22172;SDS011;11252;50.596;17.648;2023-05-10T09:54:33;3.85;;;3.20;;
22172;SDS011;11252;50.596;17.648;2023-05-10T09:57:01;4.93;;;2.75;;
22172;SDS011;11252;50.596;17.648;2023-05-10T09:59:29;11.00;;;3.05;;
22172;SDS011;11252;50.596;17.648;2023-05-10T10:01:57;7.93;;;2.88;;
22172;SDS011;11252;50.596;17.648;2023-05-10T10:04:26;9.25;;;3.55;;
22172;SDS011;11252;50.596;17.648;2023-05-10T10:07:03;6.35;;;2.60;;
22172;SDS011;11252;50.596;17.648;2023-05-10T10:09:32;6.00;;;2.15;;
22172;SDS011;11252;50.596;17.648;2023-05-10T10:12:03;7.25;;;2.08;;
22172;SDS011;11252;50.596;17.648;2023-05-10T10:14:31;7.03;;;2.40;;
22172;SDS011;11252;50.596;17.648;2023-05-10T10:17:00;4.60;;;2.67;;
22172;SDS011;11252;50.596;17.648;2023-05-10T10:19:30;4.32;;;2.53;;
22172;SDS011;11252;50.596;17.648;2023-05-10T10:22:00;7.88;;;2.75;;
22172;SDS011;11252;50.596;17.648;2023-05-10T10:24:28;8.88;;;2.60;;
22172;SDS011;11252;50.596;17.648;2023-05-10T10:26:57;6.75;;;2.20;;
22172;SDS011;11252;50.596;17.648;2023-05-10T10:35:53;2.63;;;2.15;;
22172;SDS011;11252;50.596;17.648;2023-05-10T10:38:21;5.07;;;1.98;;
22172;SDS011;11252;50.596;17.648;2023-05-10T10:40:49;4.82;;;2.55;;
22172;SDS011;11252;50.596;17.648;2023-05-10T10:43:29;5.47;;;2.25;;
22172;SDS011;11252;50.596;17.648;2023-05-10T10:49:09;5.57;;;2.20;;
22172;SDS011;11252;50.596;17.648;2023-05-10T10:51:37;4.45;;;2.03;;
22172;SDS011;11252;50.596;17.648;2023-05-10T10:54:09;5.20;;;2.90;;
22172;SDS011;11252;50.596;17.648;2023-05-10T10:56:37;5.07;;;2.15;;
22172;SDS011;11252;50.596;17.648;2023-05-10T10:59:05;2.60;;;1.90;;
22172;SDS011;11252;50.596;17.648;2023-05-10T11:01:34;3.42;;;1.83;;
22172;SDS011;11252;50.596;17.648;2023-05-10T11:06:32;2.30;;;1.65;;
22172;SDS011;11252;50.596;17.648;2023-05-10T11:09:06;6.30;;;2.67;;
22172;SDS011;11252;50.596;17.648;2023-05-10T11:11:34;4.53;;;1.92;;
22172;SDS011;11252;50.596;17.648;2023-05-10T11:14:04;5.75;;;2.50;;
22172;SDS011;11252;50.596;17.648;2023-05-10T11:16:42;2.47;;;1.17;;
22172;SDS011;11252;50.596;17.648;2023-05-10T11:19:11;2.47;;;1.70;;
22172;SDS011;11252;50.596;17.648;2023-05-10T11:21:50;5.18;;;1.88;;
22172;SDS011;11252;50.596;17.648;2023-05-10T11:24:38;4.85;;;2.00;;
22172;SDS011;11252;50.596;17.648;2023-05-10T11:27:06;2.67;;;1.70;;
22172;SDS011;11252;50.596;17.648;2023-05-10T11:29:34;3.40;;;1.50;;
22172;SDS011;11252;50.596;17.648;2023-05-10T11:32:01;5.80;;;2.13;;
22172;SDS011;11252;50.596;17.648;2023-05-10T11:34:34;4.35;;;2.22;;
22172;SDS011;11252;50.596;17.648;2023-05-10T11:37:01;3.08;;;1.50;;
22172;SDS011;11252;50.596;17.648;2023-05-10T11:39:30;5.47;;;2.20;;
22172;SDS011;11252;50.596;17.648;2023-05-10T11:41:58;3.67;;;1.63;;
22172;SDS011;11252;50.596;17.648;2023-05-10T11:44:32;2.72;;;1.73;;
22172;SDS011;11252;50.596;17.648;2023-05-10T11:47:00;2.45;;;1.70;;
22172;SDS011;11252;50.596;17.648;2023-05-10T11:49:28;4.90;;;2.05;;
22172;SDS011;11252;50.596;17.648;2023-05-10T11:52:06;5.55;;;1.58;;
22172;SDS011;11252;50.596;17.648;2023-05-10T11:54:34;4.25;;;1.50;;
22172;SDS011;11252;50.596;17.648;2023-05-10T11:57:02;6.35;;;1.50;;
22172;SDS011;11252;50.596;17.648;2023-05-10T11:59:30;7.93;;;1.73;;
22172;SDS011;11252;50.596;17.648;2023-05-10T12:01:57;2.70;;;1.30;;
22172;SDS011;11252;50.596;17.648;2023-05-10T12:04:25;6.75;;;1.58;;
22172;SDS011;11252;50.596;17.648;2023-05-10T12:06:54;2.70;;;1.40;;
22172;SDS011;11252;50.596;17.648;2023-05-10T12:09:22;1.95;;;1.83;;
22172;SDS011;11252;50.596;17.648;2023-05-10T12:11:55;2.33;;;1.40;;
22172;SDS011;11252;50.596;17.648;2023-05-10T12:14:26;1.52;;;1.20;;
22172;SDS011;11252;50.596;17.648;2023-05-10T12:16:53;1.63;;;1.40;;
22172;SDS011;11252;50.596;17.648;2023-05-10T12:19:23;3.53;;;1.48;;
22172;SDS011;11252;50.596;17.648;2023-05-10T12:21:51;4.68;;;1.45;;
22172;SDS011;11252;50.596;17.648;2023-05-10T12:24:18;3.88;;;1.50;;
22172;SDS011;11252;50.596;17.648;2023-05-10T12:26:48;2.25;;;1.58;;
22172;SDS011;11252;50.596;17.648;2023-05-10T12:29:33;3.15;;;1.02;;
22172;SDS011;11252;50.596;17.648;2023-05-10T12:32:01;2.83;;;1.33;;
22172;SDS011;11252;50.596;17.648;2023-05-10T12:34:33;3.83;;;1.30;;
22172;SDS011;11252;50.596;17.648;2023-05-10T12:37:02;1.42;;;1.10;;
22172;SDS011;11252;50.596;17.648;2023-05-10T12:39:43;3.95;;;1.58;;
22172;SDS011;11252;50.596;17.648;2023-05-10T12:42:11;1.40;;;1.25;;
22172;SDS011;11252;50.596;17.648;2023-05-10T12:44:39;4.47;;;2.40;;
22172;SDS011;11252;50.596;17.648;2023-05-10T12:47:06;4.03;;;2.38;;
22172;SDS011;11252;50.596;17.648;2023-05-10T12:49:34;2.95;;;2.13;;
22172;SDS011;11252;50.596;17.648;2023-05-10T12:52:02;1.70;;;1.60;;
22172;SDS011;11252;50.596;17.648;2023-05-10T12:54:29;6.05;;;2.60;;
22172;SDS011;11252;50.596;17.648;2023-05-10T12:56:57;3.53;;;1.63;;
22172;SDS011;11252;50.596;17.648;2023-05-10T12:59:24;1.58;;;1.20;;
22172;SDS011;11252;50.596;17.648;2023-05-10T13:01:51;1.67;;;1.50;;
22172;SDS011;11252;50.596;17.648;2023-05-10T13:04:19;3.28;;;1.85;;
22172;SDS011;11252;50.596;17.648;2023-05-10T13:06:46;3.28;;;1.42;;
22172;SDS011;11252;50.596;17.648;2023-05-10T13:09:13;1.58;;;1.23;;
22172;SDS011;11252;50.596;17.648;2023-05-10T13:11:41;3.97;;;1.35;;
22172;SDS011;11252;50.596;17.648;2023-05-10T13:14:09;6.28;;;1.33;;
22172;SDS011;11252;50.596;17.648;2023-05-10T13:16:36;3.45;;;2.08;;
22172;SDS011;11252;50.596;17.648;2023-05-10T13:19:04;5.07;;;1.33;;
22172;SDS011;11252;50.596;17.648;2023-05-10T13:21:31;1.88;;;1.40;;
22172;SDS011;11252;50.596;17.648;2023-05-10T13:23:59;1.63;;;1.40;;
22172;SDS011;11252;50.596;17.648;2023-05-10T13:26:29;3.03;;;1.55;;
22172;SDS011;11252;50.596;17.648;2023-05-10T13:28:57;5.47;;;1.70;;
22172;SDS011;11252;50.596;17.648;2023-05-10T13:31:24;4.95;;;1.45;;
22172;SDS011;11252;50.596;17.648;2023-05-10T13:33:52;3.38;;;1.40;;
22172;SDS011;11252;50.596;17.648;2023-05-10T13:36:19;2.47;;;1.80;;
22172;SDS011;11252;50.596;17.648;2023-05-10T13:38:47;1.90;;;1.50;;
22172;SDS011;11252;50.596;17.648;2023-05-10T13:41:16;3.33;;;1.40;;
22172;SDS011;11252;50.596;17.648;2023-05-10T13:43:44;2.58;;;1.30;;
22172;SDS011;11252;50.596;17.648;2023-05-10T13:46:11;2.35;;;1.55;;
22172;SDS011;11252;50.596;17.648;2023-05-10T13:48:41;2.58;;;1.42;;
22172;SDS011;11252;50.596;17.648;2023-05-10T13:51:09;7.63;;;1.25;;
22172;SDS011;11252;50.596;17.648;2023-05-10T13:53:36;4.00;;;1.20;;
22172;SDS011;11252;50.596;17.648;2023-05-10T13:56:04;4.85;;;1.55;;
22172;SDS011;11252;50.596;17.648;2023-05-10T13:58:32;4.13;;;1.30;;
22172;SDS011;11252;50.596;17.648;2023-05-10T14:01:00;5.45;;;1.60;;
22172;SDS011;11252;50.596;17.648;2023-05-10T14:03:27;6.40;;;1.70;;
22172;SDS011;11252;50.596;17.648;2023-05-10T14:05:55;1.73;;;1.63;;
22172;SDS011;11252;50.596;17.648;2023-05-10T14:08:23;3.95;;;1.90;;
22172;SDS011;11252;50.596;17.648;2023-05-10T14:10:53;2.05;;;1.65;;
22172;SDS011;11252;50.596;17.648;2023-05-10T14:13:23;2.45;;;1.55;;
22172;SDS011;11252;50.596;17.648;2023-05-10T14:15:52;3.92;;;1.77;;
22172;SDS011;11252;50.596;17.648;2023-05-10T14:18:20;1.70;;;1.60;;
22172;SDS011;11252;50.596;17.648;2023-05-10T14:20:50;3.60;;;1.40;;
22172;SDS011;11252;50.596;17.648;2023-05-10T14:23:17;6.90;;;1.67;;
22172;SDS011;11252;50.596;17.648;2023-05-10T14:25:46;6.18;;;1.38;;
22172;SDS011;11252;50.596;17.648;2023-05-10T14:28:14;4.07;;;1.55;;
22172;SDS011;11252;50.596;17.648;2023-05-10T14:30:42;2.55;;;1.50;;
22172;SDS011;11252;50.596;17.648;2023-05-10T14:33:09;4.07;;;1.63;;
22172;SDS011;11252;50.596;17.648;2023-05-10T14:35:37;4.60;;;1.42;;
22172;SDS011;11252;50.596;17.648;2023-05-10T14:38:12;2.03;;;1.40;;
22172;SDS011;11252;50.596;17.648;2023-05-10T14:40:40;3.58;;;1.58;;
22172;SDS011;11252;50.596;17.648;2023-05-10T14:43:10;4.90;;;1.30;;
22172;SDS011;11252;50.596;17.648;2023-05-10T14:45:37;2.92;;;1.30;;
22172;SDS011;11252;50.596;17.648;2023-05-10T14:48:06;5.93;;;2.30;;
22172;SDS011;11252;50.596;17.648;2023-05-10T14:50:37;5.88;;;1.60;;
22172;SDS011;11252;50.596;17.648;2023-05-10T14:53:06;3.28;;;1.48;;
22172;SDS011;11252;50.596;17.648;2023-05-10T14:55:33;5.03;;;2.08;;
22172;SDS011;11252;50.596;17.648;2023-05-10T14:58:02;1.70;;;1.38;;
22172;SDS011;11252;50.596;17.648;2023-05-10T15:00:29;4.63;;;1.58;;
22172;SDS011;11252;50.596;17.648;2023-05-10T15:02:59;2.10;;;1.48;;
22172;SDS011;11252;50.596;17.648;2023-05-10T15:05:27;1.45;;;1.25;;